createdAt,value
2022-09-26T00:01:54.413Z,4.63
2022-09-26T00:04:26.007Z,4.61
2022-09-26T00:06:56.285Z,4.54
2022-09-26T00:09:24.413Z,4.57
2022-09-26T00:11:51.426Z,4.57
2022-09-26T00:14:21.947Z,4.53
2022-09-26T00:16:48.639Z,4.53
2022-09-26T00:19:15.360Z,4.54
2022-09-26T00:21:41.983Z,4.50
2022-09-26T00:24:08.679Z,4.42
2022-09-26T00:26:37.159Z,4.46
2022-09-26T00:29:07.354Z,4.52
2022-09-26T00:31:36.376Z,4.58
2022-09-26T00:34:03.378Z,4.63
2022-09-26T00:36:37.898Z,4.68
2022-09-26T00:39:07.491Z,4.65
2022-09-26T00:41:34.525Z,4.66
2022-09-26T00:44:01.329Z,4.60
2022-09-26T00:46:43.062Z,4.54
2022-09-26T00:49:29.985Z,4.46
2022-09-26T00:52:21.723Z,4.35
2022-09-26T00:54:50.345Z,4.38
2022-09-26T00:57:21.863Z,4.43
2022-09-26T00:59:52.261Z,4.47
2022-09-26T01:02:19.130Z,4.53
2022-09-26T01:04:47.369Z,4.64
2022-09-26T01:07:22.770Z,4.71
2022-09-26T01:09:49.414Z,4.72
2022-09-26T01:12:16.871Z,4.73
2022-09-26T01:14:44.074Z,4.74
2022-09-26T01:17:11.236Z,4.70
2022-09-26T01:19:52.932Z,4.76
2022-09-26T01:22:50.284Z,4.67
2022-09-26T01:25:38.283Z,4.71
2022-09-26T01:28:16.842Z,4.76
2022-09-26T01:30:51.466Z,4.78
2022-09-26T01:33:55.791Z,4.89
2022-09-26T01:36:40.859Z,4.90
2022-09-26T01:39:26.118Z,4.95
2022-09-26T01:42:13.917Z,4.99
2022-09-26T01:44:48.572Z,5.09
2022-09-26T01:47:24.132Z,5.21
2022-09-26T01:50:06.669Z,5.39
2022-09-26T01:52:37.224Z,5.78
2022-09-26T01:55:11.633Z,6.24
2022-09-26T01:57:42.953Z,6.47
2022-09-26T02:00:12.696Z,6.66
2022-09-26T02:02:45.926Z,6.74
2022-09-26T02:05:20.776Z,6.88
2022-09-26T02:07:56.864Z,6.97
2022-09-26T02:10:28.437Z,7.00
2022-09-26T02:13:03.393Z,7.15
2022-09-26T02:15:31.332Z,7.27
2022-09-26T02:18:06.069Z,7.44
2022-09-26T02:20:35.593Z,7.39
2022-09-26T02:23:05.520Z,7.40
2022-09-26T02:25:33.122Z,7.26
2022-09-26T02:28:00.185Z,7.17
2022-09-26T02:30:27.162Z,7.18
2022-09-26T02:32:53.777Z,7.24
2022-09-26T02:35:39.212Z,7.27
2022-09-26T02:38:06.121Z,7.33
2022-09-26T02:41:00.427Z,7.31
2022-09-26T02:43:34.729Z,7.40
2022-09-26T02:46:01.397Z,7.39
2022-09-26T02:48:52.316Z,7.46
2022-09-26T02:51:34.000Z,7.44
2022-09-26T02:54:20.771Z,7.52
2022-09-26T02:56:55.772Z,7.49
2022-09-26T02:59:26.754Z,7.45
2022-09-26T03:02:18.141Z,7.52
2022-09-26T03:04:54.905Z,7.50
2022-09-26T03:07:27.537Z,7.42
2022-09-26T03:09:56.081Z,7.46
2022-09-26T03:12:23.423Z,7.56
2022-09-26T03:14:50.572Z,7.58
2022-09-26T03:17:18.914Z,7.64
2022-09-26T03:20:04.243Z,7.56
2022-09-26T03:22:31.089Z,7.64
2022-09-26T03:24:59.438Z,7.63
2022-09-26T03:27:27.244Z,7.63
2022-09-26T03:29:54.079Z,7.57
2022-09-26T03:32:20.623Z,7.47
2022-09-26T03:34:47.163Z,7.56
2022-09-26T03:37:13.761Z,7.63
2022-09-26T03:39:40.301Z,7.63
2022-09-26T03:42:06.854Z,7.58
2022-09-26T03:44:33.354Z,7.52
2022-09-26T03:46:59.884Z,7.61
2022-09-26T03:49:26.925Z,7.58
2022-09-26T03:51:53.499Z,7.67
2022-09-26T03:54:20.019Z,7.66
2022-09-26T03:56:46.576Z,7.67
2022-09-26T03:59:13.304Z,7.58
2022-09-26T04:01:41.078Z,7.54
2022-09-26T04:04:07.731Z,7.53
2022-09-26T04:06:34.659Z,7.52
2022-09-26T04:09:01.303Z,7.50
2022-09-26T04:11:27.863Z,7.46
2022-09-26T04:13:54.596Z,7.45
2022-09-26T04:16:23.673Z,7.52
2022-09-26T04:18:56.811Z,7.65
2022-09-26T04:21:24.157Z,7.77
2022-09-26T04:23:50.727Z,7.80
2022-09-26T04:26:22.736Z,7.79
2022-09-26T04:28:55.318Z,7.82
2022-09-26T04:31:23.258Z,7.82
2022-09-26T04:33:50.384Z,7.77
2022-09-26T04:36:17.655Z,7.75
2022-09-26T04:38:44.392Z,7.69
2022-09-26T04:41:13.657Z,7.77
2022-09-26T04:43:41.006Z,7.79
2022-09-26T04:46:09.897Z,7.80
2022-09-26T04:48:36.807Z,7.75
2022-09-26T04:51:07.581Z,7.75
2022-09-26T04:53:34.856Z,7.73
2022-09-26T04:56:02.093Z,7.80
2022-09-26T04:58:29.566Z,7.89
2022-09-26T05:00:56.477Z,7.85
2022-09-26T05:03:23.211Z,7.77
2022-09-26T05:05:50.479Z,7.67
2022-09-26T05:08:17.330Z,7.67
2022-09-26T05:10:43.995Z,7.77
2022-09-26T05:13:10.968Z,7.72
2022-09-26T05:15:42.854Z,7.67
2022-09-26T05:18:11.449Z,7.80
2022-09-26T05:20:38.739Z,7.73
2022-09-26T05:23:07.104Z,7.69
2022-09-26T05:25:57.757Z,7.69
2022-09-26T05:28:25.512Z,7.74
2022-09-26T05:30:52.667Z,7.86
2022-09-26T05:33:19.552Z,7.86
2022-09-26T05:35:50.839Z,7.95
2022-09-26T05:38:17.399Z,7.95
2022-09-26T05:40:59.352Z,7.86
2022-09-26T05:43:30.106Z,7.80
2022-09-26T05:46:01.756Z,7.76
2022-09-26T05:48:29.830Z,7.77
2022-09-26T05:50:56.624Z,7.77
2022-09-26T05:53:25.092Z,7.93
2022-09-26T05:55:51.914Z,7.95
2022-09-26T05:58:19.049Z,7.87
2022-09-26T06:00:49.913Z,7.83
2022-09-26T06:03:16.621Z,7.89
2022-09-26T06:05:43.264Z,7.92
2022-09-26T06:08:10.845Z,7.87
2022-09-26T06:10:38.676Z,7.83
2022-09-26T06:13:06.233Z,7.86
2022-09-26T06:15:32.788Z,7.84
2022-09-26T06:18:01.125Z,7.86
2022-09-26T06:20:28.022Z,7.84
2022-09-26T06:22:55.214Z,7.84
2022-09-26T06:25:22.037Z,7.83
2022-09-26T06:27:48.872Z,7.91
2022-09-26T06:30:16.381Z,7.88
2022-09-26T06:32:42.920Z,7.94
2022-09-26T06:35:09.655Z,7.95
2022-09-26T06:37:36.189Z,8.12
2022-09-26T06:40:02.748Z,8.22
2022-09-26T06:42:37.996Z,8.27
2022-09-26T06:45:09.514Z,8.28
2022-09-26T06:47:36.318Z,8.31
2022-09-26T06:50:03.417Z,8.43
2022-09-26T06:52:34.019Z,8.75
2022-09-26T06:55:02.517Z,9.02
2022-09-26T06:57:30.128Z,9.09
2022-09-26T06:59:57.213Z,8.95
2022-09-26T07:02:27.045Z,9.05
2022-09-26T07:04:53.679Z,9.10
2022-09-26T07:07:20.244Z,9.19
2022-09-26T07:09:46.822Z,9.33
2022-09-26T07:12:15.789Z,9.55
2022-09-26T07:14:43.033Z,9.71
2022-09-26T07:17:15.604Z,10.06
2022-09-26T07:19:42.822Z,10.20
2022-09-26T07:22:09.659Z,10.51
2022-09-26T07:24:36.537Z,10.84
2022-09-26T07:27:03.484Z,10.47
2022-09-26T07:29:30.067Z,10.72
2022-09-26T07:31:56.706Z,10.20
2022-09-26T07:34:25.127Z,10.46
2022-09-26T07:36:51.989Z,10.73
2022-09-26T07:39:18.748Z,10.79
2022-09-26T07:41:46.120Z,10.91
2022-09-26T07:47:18.459Z,10.55
2022-09-26T07:50:03.639Z,10.39
2022-09-26T07:52:30.756Z,10.28
2022-09-26T07:54:57.327Z,10.20
2022-09-26T07:57:24.040Z,10.61
2022-09-26T07:59:51.007Z,10.83
2022-09-26T08:02:24.769Z,11.01
2022-09-26T08:04:57.643Z,11.14
2022-09-26T08:07:26.808Z,11.08
2022-09-26T08:09:54.136Z,11.29
2022-09-26T08:12:22.352Z,11.37
2022-09-26T08:14:49.671Z,11.28
2022-09-26T08:17:17.169Z,10.85
2022-09-26T08:19:43.696Z,11.03
2022-09-26T08:22:10.575Z,11.01
2022-09-26T08:24:37.290Z,11.04
2022-09-26T08:27:03.820Z,11.05
2022-09-26T08:29:34.132Z,10.95
2022-09-26T08:32:03.199Z,10.99
2022-09-26T08:34:32.065Z,10.96
2022-09-26T08:36:58.682Z,10.89
2022-09-26T08:39:28.011Z,10.94
2022-09-26T08:42:02.771Z,10.87
2022-09-26T08:44:46.207Z,11.00
2022-09-26T08:47:46.860Z,10.90
2022-09-26T08:50:17.322Z,10.90
2022-09-26T08:52:48.273Z,11.00
2022-09-26T08:55:18.413Z,11.10
2022-09-26T08:57:48.537Z,11.04
2022-09-26T09:00:15.340Z,10.92
2022-09-26T09:02:49.270Z,11.04
2022-09-26T09:05:21.834Z,11.04
2022-09-26T09:07:50.891Z,10.84
2022-09-26T09:10:19.621Z,10.81
2022-09-26T09:13:09.376Z,10.83
2022-09-26T09:16:10.157Z,10.56
2022-09-26T09:18:59.292Z,10.32
2022-09-26T09:21:50.506Z,10.15
2022-09-26T09:24:30.182Z,9.95
2022-09-26T09:30:17.675Z,9.75
2022-09-26T09:33:01.205Z,9.80
2022-09-26T09:35:39.024Z,9.88
2022-09-26T09:38:07.090Z,9.79
2022-09-26T09:40:38.072Z,9.97
2022-09-26T09:43:11.459Z,10.10
2022-09-26T09:45:45.286Z,10.24
2022-09-26T09:48:13.225Z,10.22
2022-09-26T09:50:42.739Z,10.18
2022-09-26T09:53:52.806Z,10.15
2022-09-26T09:56:43.287Z,10.06
2022-09-26T09:59:09.748Z,10.09
2022-09-26T10:01:41.491Z,9.83
2022-09-26T10:04:39.024Z,9.65
2022-09-26T10:07:05.648Z,9.51
2022-09-26T10:09:40.979Z,9.42
2022-09-26T10:12:19.057Z,9.38
2022-09-26T10:15:07.557Z,9.36
2022-09-26T10:17:34.185Z,9.45
2022-09-26T10:20:00.875Z,9.36
2022-09-26T10:22:37.915Z,9.67
2022-09-26T10:25:08.627Z,9.74
2022-09-26T10:27:38.309Z,10.04
2022-09-26T10:30:04.944Z,10.53
2022-09-26T10:32:45.903Z,10.80
2022-09-26T10:35:28.689Z,10.66
2022-09-26T10:38:00.173Z,10.35
2022-09-26T10:40:48.581Z,10.35
2022-09-26T10:43:20.395Z,10.31
2022-09-26T10:45:55.318Z,10.20
2022-09-26T10:48:28.025Z,9.90
2022-09-26T10:51:01.821Z,9.77
2022-09-26T10:53:36.046Z,9.67
2022-09-26T10:56:16.940Z,9.56
2022-09-26T10:58:45.706Z,9.65
2022-09-26T11:01:26.634Z,9.81
2022-09-26T11:03:56.043Z,9.90
2022-09-26T11:06:24.290Z,9.93
2022-09-26T11:08:54.289Z,9.84
2022-09-26T11:11:22.324Z,9.87
2022-09-26T11:14:03.931Z,9.77
2022-09-26T11:16:43.584Z,9.59
2022-09-26T11:19:34.091Z,9.49
2022-09-26T11:22:15.869Z,9.36
2022-09-26T11:24:54.894Z,9.30
2022-09-26T11:27:23.804Z,9.18
2022-09-26T11:30:20.844Z,9.19
2022-09-26T11:32:52.350Z,8.94
2022-09-26T11:35:43.287Z,8.99
2022-09-26T11:38:26.114Z,8.97
2022-09-26T11:41:14.641Z,8.86
2022-09-26T11:44:00.742Z,8.84
2022-09-26T11:46:51.584Z,9.01
2022-09-26T11:49:30.098Z,8.96
2022-09-26T11:52:19.257Z,9.13
2022-09-26T11:55:04.622Z,9.09
2022-09-26T11:57:37.344Z,8.97
2022-09-26T12:00:09.622Z,8.80
2022-09-26T12:03:11.029Z,8.83
2022-09-26T12:06:18.078Z,9.01
2022-09-26T12:09:00.441Z,9.06
2022-09-26T12:11:56.253Z,9.13
2022-09-26T12:15:02.911Z,9.27
2022-09-26T12:17:48.073Z,9.20
2022-09-26T12:20:29.521Z,9.19
2022-09-26T12:23:11.338Z,9.34
2022-09-26T12:25:57.879Z,9.41
2022-09-26T12:28:43.142Z,9.27
2022-09-26T12:31:23.710Z,9.40
2022-09-26T12:34:08.648Z,9.56
2022-09-26T12:36:40.357Z,9.83
2022-09-26T12:39:19.247Z,11.16
2022-09-26T12:42:04.600Z,11.86
2022-09-26T12:44:43.284Z,11.95
2022-09-26T12:47:47.796Z,11.60
2022-09-26T12:50:39.553Z,10.75
2022-09-26T12:53:17.307Z,10.55
2022-09-26T12:55:47.717Z,10.69
2022-09-26T12:58:29.140Z,11.00
2022-09-26T13:00:58.553Z,11.56
2022-09-26T13:03:49.961Z,11.73
2022-09-26T13:07:17.710Z,11.72
2022-09-26T13:10:07.348Z,11.75
2022-09-26T13:12:45.780Z,11.49
2022-09-26T13:15:24.278Z,11.32
2022-09-26T13:17:54.796Z,11.45
2022-09-26T13:20:44.985Z,11.25
2022-09-26T13:23:27.392Z,11.26
2022-09-26T13:25:59.190Z,10.83
2022-09-26T13:29:13.320Z,10.90
2022-09-26T13:31:55.256Z,11.17
2022-09-26T13:34:38.165Z,11.41
2022-09-26T13:37:11.901Z,11.04
2022-09-26T13:39:53.864Z,10.91
2022-09-26T13:42:44.300Z,10.76
2022-09-26T13:45:25.353Z,10.61
2022-09-26T13:48:05.754Z,10.47
2022-09-26T13:50:47.643Z,10.39
2022-09-26T13:53:28.862Z,10.42
2022-09-26T13:56:30.441Z,10.42
2022-09-26T13:59:32.374Z,10.32
2022-09-26T14:02:18.922Z,10.18
2022-09-26T14:04:46.801Z,10.00
2022-09-26T14:07:34.203Z,9.93
2022-09-26T14:10:10.349Z,9.87
2022-09-26T14:13:03.535Z,9.76
2022-09-26T14:15:48.582Z,9.60
2022-09-26T14:18:39.965Z,9.55
2022-09-26T14:21:25.263Z,9.60
2022-09-26T14:24:20.607Z,9.55
2022-09-26T14:26:58.536Z,9.62
2022-09-26T14:29:28.627Z,9.69
2022-09-26T14:32:01.780Z,9.61
2022-09-26T14:34:31.080Z,9.86
2022-09-26T14:37:03.028Z,10.07
2022-09-26T14:39:41.968Z,10.16
2022-09-26T14:42:29.549Z,10.19
2022-09-26T14:45:08.888Z,10.29
2022-09-26T14:47:40.963Z,10.25
2022-09-26T14:50:15.012Z,10.30
2022-09-26T14:52:41.719Z,10.45
2022-09-26T14:55:08.579Z,10.46
2022-09-26T14:57:35.625Z,10.24
2022-09-26T15:00:02.361Z,9.89
2022-09-26T15:02:39.925Z,9.84
2022-09-26T15:05:09.587Z,10.05
2022-09-26T15:07:45.056Z,10.38
2022-09-26T15:10:11.553Z,10.46
2022-09-26T15:13:01.389Z,10.49
2022-09-26T15:15:36.918Z,10.47
2022-09-26T15:18:17.789Z,10.26
2022-09-26T15:20:51.073Z,10.04
2022-09-26T15:23:22.804Z,9.91
2022-09-26T15:25:49.669Z,9.90
2022-09-26T15:28:16.254Z,9.78
2022-09-26T15:30:42.894Z,9.71
2022-09-26T15:33:16.636Z,9.65
2022-09-26T15:35:52.845Z,9.57
2022-09-26T15:38:19.381Z,9.39
2022-09-26T15:41:00.314Z,9.35
2022-09-26T15:43:27.008Z,9.18
2022-09-26T15:45:59.255Z,9.04
2022-09-26T15:48:29.145Z,9.12
2022-09-26T15:50:58.896Z,8.96
2022-09-26T15:53:29.660Z,8.94
2022-09-26T15:56:07.658Z,8.79
2022-09-26T15:58:57.755Z,8.58
2022-09-26T16:01:28.069Z,8.50
2022-09-26T16:03:57.343Z,8.40
2022-09-26T16:06:35.785Z,8.45
2022-09-26T16:09:11.589Z,8.36
2022-09-26T16:11:47.770Z,8.37
2022-09-26T16:14:49.761Z,8.32
2022-09-26T16:17:20.196Z,8.31
2022-09-26T16:19:53.035Z,8.30
2022-09-26T16:22:45.652Z,8.24
2022-09-26T16:25:22.952Z,8.32
2022-09-26T16:28:03.325Z,8.29
2022-09-26T16:30:33.627Z,8.25
2022-09-26T16:33:03.192Z,8.23
2022-09-26T16:35:33.353Z,8.16
2022-09-26T16:38:01.113Z,8.16
2022-09-26T16:40:32.295Z,8.13
2022-09-26T16:43:27.053Z,8.07
2022-09-26T16:46:00.931Z,8.01
2022-09-26T16:48:39.355Z,8.04
2022-09-26T16:51:21.309Z,8.05
2022-09-26T16:54:08.081Z,8.02
2022-09-26T16:56:38.452Z,8.04
2022-09-26T16:59:14.366Z,7.99
2022-09-26T17:01:56.233Z,8.03
2022-09-26T17:04:34.489Z,8.06
2022-09-26T17:07:07.416Z,8.00
2022-09-26T17:09:36.045Z,7.94
2022-09-26T17:12:22.761Z,7.96
2022-09-26T17:14:51.976Z,7.95
2022-09-26T17:17:25.388Z,7.96
2022-09-26T17:19:58.205Z,7.88
2022-09-26T17:22:26.606Z,7.96
2022-09-26T17:24:53.409Z,7.88
2022-09-26T17:27:27.714Z,7.92
2022-09-26T17:30:05.395Z,7.85
2022-09-26T17:32:37.467Z,7.85
2022-09-26T17:35:12.356Z,7.77
2022-09-26T17:37:39.111Z,7.84
2022-09-26T17:40:09.897Z,7.83
2022-09-26T17:42:36.408Z,7.81
2022-09-26T17:45:02.976Z,7.79
2022-09-26T17:47:30.098Z,7.77
2022-09-26T17:49:57.385Z,7.76
2022-09-26T17:52:28.807Z,7.84
2022-09-26T17:54:58.861Z,7.81
2022-09-26T17:57:27.935Z,7.77
2022-09-26T17:59:54.887Z,7.76
2022-09-26T18:02:30.998Z,7.76
2022-09-26T18:04:59.485Z,7.78
2022-09-26T18:07:31.319Z,7.70
2022-09-26T18:09:58.291Z,7.72
2022-09-26T18:12:25.500Z,7.71
2022-09-26T18:14:52.200Z,7.69
2022-09-26T18:17:19.083Z,7.69
2022-09-26T18:19:46.748Z,7.69
2022-09-26T18:22:16.503Z,7.72
2022-09-26T18:24:45.323Z,7.60
2022-09-26T18:27:14.244Z,7.66
2022-09-26T18:29:42.789Z,7.67
2022-09-26T18:32:25.998Z,7.65
2022-09-26T18:34:52.837Z,7.65
2022-09-26T18:37:19.424Z,7.66
2022-09-26T18:39:48.644Z,7.69
2022-09-26T18:42:22.927Z,7.67
2022-09-26T18:44:51.164Z,7.62
2022-09-26T18:47:17.904Z,7.65
2022-09-26T18:49:46.369Z,7.63
2022-09-26T18:52:15.597Z,7.66
2022-09-26T18:54:44.768Z,7.68
2022-09-26T18:57:30.757Z,7.66
2022-09-26T18:59:57.923Z,7.69
2022-09-26T19:02:26.942Z,7.69
2022-09-26T19:04:54.519Z,7.66
2022-09-26T19:07:21.714Z,7.69
2022-09-26T19:09:48.635Z,7.71
2022-09-26T19:12:17.015Z,7.71
2022-09-26T19:14:44.196Z,7.72
2022-09-26T19:17:11.618Z,7.72
2022-09-26T19:19:38.596Z,7.70
2022-09-26T19:22:11.003Z,7.69
2022-09-26T19:24:47.487Z,7.77
2022-09-26T19:27:18.070Z,7.70
2022-09-26T19:29:54.165Z,7.79
2022-09-26T19:32:23.626Z,7.73
2022-09-26T19:34:53.793Z,7.73
2022-09-26T19:37:20.369Z,7.74
2022-09-26T19:39:46.910Z,7.74
2022-09-26T19:42:15.789Z,7.76
2022-09-26T19:44:42.810Z,7.73
2022-09-26T19:47:18.281Z,7.76
2022-09-26T19:49:47.566Z,7.68
2022-09-26T19:52:19.863Z,7.68
2022-09-26T19:54:46.821Z,7.74
2022-09-26T19:57:18.628Z,7.72
2022-09-26T19:59:46.123Z,7.73
2022-09-26T20:02:15.977Z,7.70
2022-09-26T20:04:43.752Z,7.83
2022-09-26T20:07:15.676Z,7.74
2022-09-26T20:09:42.625Z,7.79
2022-09-26T20:12:09.695Z,7.79
2022-09-26T20:14:36.433Z,7.77
2022-09-26T20:17:17.859Z,7.79
2022-09-26T20:19:47.266Z,7.80
2022-09-26T20:22:16.005Z,7.78
2022-09-26T20:24:43.796Z,7.78
2022-09-26T20:27:17.651Z,7.80
2022-09-26T20:30:03.287Z,7.81
2022-09-26T20:32:30.040Z,7.79
2022-09-26T20:35:00.332Z,7.77
2022-09-26T20:37:39.832Z,7.78
2022-09-26T20:40:14.964Z,7.85
2022-09-26T20:42:41.722Z,7.82
2022-09-26T20:45:15.693Z,7.81
2022-09-26T20:47:43.248Z,7.85
2022-09-26T20:50:14.811Z,7.86
2022-09-26T20:52:42.597Z,7.82
2022-09-26T20:55:16.683Z,7.81
2022-09-26T20:57:43.519Z,7.80
2022-09-26T21:00:19.042Z,7.90
2022-09-26T21:02:52.229Z,7.92
2022-09-26T21:05:22.739Z,7.82
2022-09-26T21:07:50.469Z,7.80
2022-09-26T21:10:20.920Z,7.86
2022-09-26T21:12:47.929Z,7.89
2022-09-26T21:15:14.653Z,7.91
2022-09-26T21:17:41.870Z,7.90
2022-09-26T21:20:24.289Z,7.89
2022-09-26T21:22:50.863Z,7.91
2022-09-26T21:25:19.841Z,7.86
2022-09-26T21:27:47.634Z,7.85
2022-09-26T21:30:15.971Z,7.88
2022-09-26T21:32:52.029Z,7.87
2022-09-26T21:35:20.012Z,7.95
2022-09-26T21:37:52.385Z,7.93
2022-09-26T21:40:20.558Z,7.89
2022-09-26T21:42:49.716Z,7.87
2022-09-26T21:45:17.676Z,7.93
2022-09-26T21:47:44.353Z,7.87
2022-09-26T21:50:13.774Z,7.89
2022-09-26T21:52:45.831Z,7.85
2022-09-26T21:55:16.608Z,7.89
2022-09-26T21:57:44.871Z,7.82
2022-09-26T22:00:12.893Z,7.78
2022-09-26T22:02:41.455Z,7.72
2022-09-26T22:05:09.649Z,7.70
2022-09-26T22:07:36.691Z,7.69
2022-09-26T22:10:05.189Z,7.71
2022-09-26T22:12:31.952Z,7.67
2022-09-26T22:14:59.329Z,7.60
2022-09-26T22:17:26.947Z,7.62
2022-09-26T22:19:53.508Z,7.57
2022-09-26T22:22:21.597Z,7.55
2022-09-26T22:24:48.298Z,7.57
2022-09-26T22:27:14.831Z,7.59
2022-09-26T22:29:41.395Z,7.57
2022-09-26T22:32:08.112Z,7.60
2022-09-26T22:34:34.681Z,7.60
2022-09-26T22:37:01.532Z,7.60
2022-09-26T22:39:28.105Z,7.69
2022-09-26T22:41:55.360Z,7.68
2022-09-26T22:44:22.301Z,7.69
2022-09-26T22:46:48.805Z,7.64
2022-09-26T22:49:15.497Z,7.65
2022-09-26T22:51:42.147Z,7.68
2022-09-26T22:54:08.753Z,7.79
2022-09-26T22:56:35.272Z,7.80
2022-09-26T22:59:01.845Z,7.81
2022-09-26T23:01:29.052Z,7.82
2022-09-26T23:03:57.902Z,7.81
2022-09-26T23:06:25.086Z,7.81
2022-09-26T23:08:51.727Z,7.85
2022-09-26T23:11:18.792Z,7.79
2022-09-26T23:13:46.050Z,7.79
2022-09-26T23:16:17.237Z,7.80
2022-09-26T23:18:44.453Z,7.79
2022-09-26T23:21:12.310Z,7.83
2022-09-26T23:23:39.800Z,7.79
2022-09-26T23:26:07.037Z,7.76
2022-09-26T23:28:35.036Z,7.77
2022-09-26T23:31:09.264Z,7.76
2022-09-26T23:33:36.837Z,7.80
2022-09-26T23:36:03.500Z,7.82
2022-09-26T23:38:30.296Z,7.80
2022-09-26T23:40:57.123Z,7.81
2022-09-26T23:43:23.964Z,7.87
2022-09-26T23:45:50.548Z,7.88
2022-09-26T23:48:17.423Z,7.84
2022-09-26T23:50:45.611Z,7.89
2022-09-26T23:53:13.422Z,7.82
2022-09-26T23:55:40.216Z,7.80
2022-09-26T23:58:06.826Z,7.81
